Time;durP1;ratioP1;P1;durP2;ratioP2;P2;SDS_P1;SDS_P2;PMS_P1;PMS_P2;Temp;Humidity;BMP_temperature;BMP_pressure;BME280_temperature;BME280_humidity;BME280_pressure;Samples;Min_cycle;Max_cycle;Signal;HPM_P1;HPM_P2
2022/04/11 00:01:56;;;;;;;2.50;2.30;;;17.40;50.80;18.60;101161.00;;;;5049253;28;20188;-48
2022/04/11 00:04:22;;;;;;;2.93;2.40;;;17.40;50.10;18.60;101160.00;;;;5049221;28;20177;-47
2022/04/11 00:06:47;;;;;;;2.70;2.50;;;17.30;50.10;18.60;101162.00;;;;5049152;28;20196;-47
2022/04/11 00:09:13;;;;;;;2.40;2.20;;;17.30;50.00;18.60;101161.00;;;;5048993;28;20181;-47
2022/04/11 00:11:39;;;;;;;2.90;2.63;;;17.40;50.10;18.60;101173.00;;;;5049083;28;20242;-47
2022/04/11 00:14:05;;;;;;;2.53;2.30;;;17.30;50.00;18.60;101162.00;;;;5049198;28;20172;-47
2022/04/11 00:16:31;;;;;;;2.60;2.40;;;17.30;50.10;18.50;101156.00;;;;5048806;28;20266;-46
2022/04/11 00:18:57;;;;;;;2.70;2.50;;;17.20;50.10;18.50;101155.00;;;;5048791;28;20261;-47
2022/04/11 00:21:22;;;;;;;2.80;2.60;;;17.30;50.20;18.50;101154.00;;;;5048689;28;20607;-48
2022/04/11 00:23:48;;;;;;;2.60;2.40;;;17.20;50.10;18.50;101155.00;;;;5048040;28;20185;-46
2022/04/11 00:26:14;;;;;;;2.40;2.20;;;17.20;50.10;18.50;101148.00;;;;5048397;28;20208;-48
2022/04/11 00:28:40;;;;;;;2.67;2.43;;;17.20;50.10;18.50;101146.00;;;;5048809;28;20607;-48
2022/04/11 00:31:05;;;;;;;2.40;2.20;;;17.20;50.10;18.40;101148.00;;;;5048749;28;21112;-47
2022/04/11 00:33:31;;;;;;;2.77;2.50;;;17.20;50.40;18.40;101143.00;;;;5048772;28;20166;-47
2022/04/11 00:35:57;;;;;;;2.70;2.50;;;17.10;50.30;18.40;101149.00;;;;5048743;28;20531;-48
2022/04/11 00:38:23;;;;;;;2.40;2.20;;;17.10;50.20;18.40;101140.00;;;;5048403;28;20203;-47
2022/04/11 00:40:48;;;;;;;3.43;2.50;;;17.10;50.30;18.40;101135.00;;;;5048535;28;20245;-47
2022/04/11 00:43:36;;;;;;;2.70;2.50;;;17.10;50.30;18.40;101138.00;;;;5048595;28;20184;-47
2022/04/11 00:46:03;;;;;;;2.60;2.40;;;17.00;50.30;18.30;101143.00;;;;5048300;28;20229;-48
2022/04/11 00:48:29;;;;;;;2.57;2.37;;;17.00;50.30;18.30;101136.00;;;;5048420;28;20251;-48
2022/04/11 00:51:21;;;;;;;2.70;2.50;;;17.00;50.30;18.30;101136.00;;;;5048323;28;20244;-48
2022/04/11 00:53:47;;;;;;;2.90;2.57;;;17.00;50.40;18.20;101136.00;;;;5044379;28;20194;-47
2022/04/11 00:56:16;;;;;;;2.80;2.60;;;17.00;50.30;18.20;101141.00;;;;5047821;28;20183;-47
2022/04/11 00:58:41;;;;;;;2.50;2.30;;;17.00;50.30;18.20;101128.00;;;;5030617;28;20180;-48
2022/04/11 01:01:07;;;;;;;2.70;2.50;;;17.00;50.30;18.20;101134.00;;;;5047729;28;20221;-48
2022/04/11 01:03:33;;;;;;;2.67;2.47;;;17.00;50.30;18.20;101130.00;;;;5046952;28;20176;-47
2022/04/11 01:05:59;;;;;;;2.90;2.70;;;16.90;50.40;18.20;101123.00;;;;5047817;28;20202;-48
2022/04/11 01:08:25;;;;;;;2.53;2.33;;;16.90;50.40;18.20;101119.00;;;;5047487;28;20248;-47
2022/04/11 01:10:54;;;;;;;2.43;2.23;;;16.90;50.40;18.10;101132.00;;;;5046536;28;20224;-47
2022/04/11 01:13:20;;;;;;;2.70;2.50;;;16.90;50.40;18.10;101126.00;;;;5047943;28;20261;-48
2022/04/11 01:15:59;;;;;;;2.40;2.20;;;16.90;50.40;18.10;101126.00;;;;5046397;28;20183;-47
2022/04/11 01:18:25;;;;;;;2.50;2.30;;;16.90;50.40;18.10;101116.00;;;;5048120;28;20172;-46
2022/04/11 01:20:51;;;;;;;2.53;2.33;;;16.90;50.50;18.10;101124.00;;;;5047880;28;20738;-47
2022/04/11 01:23:17;;;;;;;2.80;2.53;;;16.80;50.40;18.00;101123.00;;;;5047932;28;20174;-47
2022/04/11 01:25:42;;;;;;;2.50;2.30;;;16.80;50.40;18.00;101107.00;;;;5047211;28;20199;-46
2022/04/11 01:28:08;;;;;;;2.67;2.47;;;16.80;50.40;18.00;101111.00;;;;5046569;28;20186;-47
2022/04/11 01:30:34;;;;;;;2.50;2.30;;;16.80;50.40;18.00;101115.00;;;;5046558;28;20198;-47
2022/04/11 01:32:59;;;;;;;2.33;2.13;;;16.80;50.40;18.00;101105.00;;;;5046469;28;20205;-48
2022/04/11 01:35:26;;;;;;;2.40;2.20;;;16.80;50.40;18.00;101104.00;;;;5047749;28;20693;-47
2022/04/11 01:37:55;;;;;;;2.30;2.20;;;16.70;50.40;17.90;101107.00;;;;5048984;28;20167;-47
2022/04/11 01:40:21;;;;;;;2.40;2.20;;;16.70;50.40;17.90;101091.00;;;;5053868;28;20395;-47
2022/04/11 01:42:47;;;;;;;2.50;2.30;;;16.70;51.00;17.90;101093.00;;;;5048355;28;20170;-47
2022/04/11 01:45:13;;;;;;;2.60;2.40;;;16.70;50.50;17.90;101091.00;;;;5047452;28;20597;-47
2022/04/11 01:47:39;;;;;;;2.70;2.50;;;16.70;50.50;17.90;101089.00;;;;5047632;28;20174;-47
2022/04/11 01:50:07;;;;;;;2.40;2.20;;;16.70;50.50;17.90;101087.00;;;;5047292;28;20179;-47
2022/04/11 01:52:32;;;;;;;2.17;2.03;;;16.70;50.40;17.90;101091.00;;;;5047508;28;20163;-47
2022/04/11 01:54:58;;;;;;;2.30;2.10;;;16.60;50.30;17.80;101094.00;;;;5047356;28;20538;-48
2022/04/11 01:57:24;;;;;;;2.30;2.10;;;16.60;50.30;17.80;101084.00;;;;5049746;28;20234;-47
2022/04/11 01:59:49;;;;;;;2.40;2.20;;;16.60;50.30;17.80;101094.00;;;;5051549;28;21076;-46
2022/04/11 02:02:15;;;;;;;2.40;2.20;;;16.60;50.60;17.80;101083.00;;;;5051525;28;20189;-48
2022/04/11 02:04:41;;;;;;;2.40;2.20;;;16.50;50.60;17.80;101085.00;;;;5051316;28;20182;-47
2022/04/11 02:07:06;;;;;;;2.30;2.10;;;16.50;50.60;17.70;101078.00;;;;5051247;28;20233;-47
2022/04/11 02:09:32;;;;;;;2.43;2.23;;;16.50;50.70;17.70;101081.00;;;;5051107;28;20170;-48
2022/04/11 02:11:58;;;;;;;2.27;2.10;;;16.50;50.60;17.70;101073.00;;;;5051722;28;20640;-47
2022/04/11 02:14:23;;;;;;;2.20;2.10;;;16.50;50.70;17.70;101070.00;;;;5051504;28;20177;-47
2022/04/11 02:16:49;;;;;;;2.40;2.20;;;16.50;50.70;17.70;101067.00;;;;5051362;28;20178;-46
2022/04/11 02:19:15;;;;;;;2.40;2.20;;;16.50;50.60;17.70;101062.00;;;;5051478;28;20182;-46
2022/04/11 02:21:40;;;;;;;2.50;2.30;;;16.50;50.60;17.70;101069.00;;;;5051391;28;20202;-47
2022/04/11 02:24:06;;;;;;;2.17;2.00;;;16.50;50.60;17.60;101061.00;;;;5050991;28;20532;-47
2022/04/11 02:26:32;;;;;;;3.20;2.40;;;16.40;51.20;17.60;101069.00;;;;5056338;28;20194;-48
2022/04/11 02:28:58;;;;;;;2.30;2.10;;;16.40;50.50;17.60;101064.00;;;;5054277;28;20177;-47
2022/04/11 02:31:24;;;;;;;1.93;1.83;;;16.40;50.60;17.60;101060.00;;;;5051053;28;20590;-47
2022/04/11 02:33:49;;;;;;;2.37;2.17;;;16.40;50.60;17.60;101050.00;;;;5050962;28;20174;-46
2022/04/11 02:36:15;;;;;;;2.40;2.20;;;16.40;50.50;17.60;101057.00;;;;5050682;28;20185;-46
2022/04/11 02:38:41;;;;;;;2.03;1.93;;;16.40;50.40;17.60;101061.00;;;;5050869;28;20174;-47
2022/04/11 02:41:07;;;;;;;2.40;2.20;;;16.40;50.60;17.50;101061.00;;;;5049172;28;20256;-47
2022/04/11 02:43:32;;;;;;;2.27;2.07;;;16.40;50.50;17.50;101057.00;;;;5058859;28;20185;-46
2022/04/11 02:45:58;;;;;;;2.00;1.90;;;16.30;50.40;17.50;101065.00;;;;5075398;28;20504;-47
2022/04/11 02:48:24;;;;;;;2.30;2.10;;;16.30;50.20;17.50;101077.00;;;;5074332;28;20193;-48
2022/04/11 02:50:51;;;;;;;2.23;2.10;;;16.30;50.20;17.50;101065.00;;;;5070570;28;20189;-47
2022/04/11 02:53:17;;;;;;;2.47;2.00;;;16.30;50.20;17.50;101069.00;;;;5070262;28;20182;-47
2022/04/11 02:55:42;;;;;;;2.00;1.90;;;16.30;50.30;17.50;101065.00;;;;5068708;28;20602;-47
2022/04/11 02:58:08;;;;;;;1.93;1.83;;;16.30;50.20;17.40;101067.00;;;;5068690;28;20189;-46
2022/04/11 03:00:34;;;;;;;2.20;2.00;;;16.30;50.30;17.40;101063.00;;;;5071316;28;20225;-46
2022/04/11 03:02:59;;;;;;;2.10;2.00;;;16.20;50.10;17.40;101062.00;;;;5070607;28;20674;-46
2022/04/11 03:05:25;;;;;;;2.10;1.90;;;16.20;50.10;17.40;101059.00;;;;5071078;28;20174;-47
2022/04/11 03:07:51;;;;;;;2.33;2.10;;;16.20;50.10;17.40;101067.00;;;;5070920;28;20180;-47
2022/04/11 03:10:17;;;;;;;2.30;2.10;;;16.20;50.10;17.40;101060.00;;;;5070721;28;20197;-47
2022/04/11 03:12:42;;;;;;;2.27;2.00;;;16.20;50.20;17.30;101065.00;;;;5070203;28;20252;-46
2022/04/11 03:15:09;;;;;;;2.10;1.90;;;16.20;50.40;17.30;101062.00;;;;5070308;28;20176;-48
2022/04/11 03:17:34;;;;;;;2.10;1.90;;;16.10;50.30;17.30;101067.00;;;;5069872;28;20192;-47
2022/04/11 03:20:00;;;;;;;2.03;1.93;;;16.10;50.20;17.30;101062.00;;;;5069336;28;20545;-47
2022/04/11 03:22:26;;;;;;;2.23;2.03;;;16.10;50.30;17.30;101061.00;;;;5070126;28;20161;-47
2022/04/11 03:24:51;;;;;;;1.90;1.80;;;16.10;50.30;17.30;101054.00;;;;5070559;28;20645;-47
2022/04/11 03:27:17;;;;;;;2.20;2.00;;;16.10;50.30;17.30;101064.00;;;;5072740;28;20530;-47
2022/04/11 03:29:43;;;;;;;3.50;2.03;;;16.10;50.50;17.20;101061.00;;;;5069837;28;20220;-48
2022/04/11 03:32:09;;;;;;;5.80;2.10;;;16.10;50.90;17.20;101058.00;;;;5069673;28;20177;-50
2022/04/11 03:34:34;;;;;;;3.30;1.90;;;16.10;50.50;17.20;101060.00;;;;5072464;28;20208;-49
2022/04/11 03:37:00;;;;;;;2.73;1.90;;;16.10;50.50;17.20;101059.00;;;;5071668;28;20181;-50
2022/04/11 03:39:26;;;;;;;2.53;2.00;;;16.10;50.40;17.20;101058.00;;;;5069592;28;20177;-50
2022/04/11 03:41:51;;;;;;;3.20;2.10;;;16.10;50.20;17.10;101056.00;;;;5069468;28;20197;-49
2022/04/11 03:44:17;;;;;;;2.47;2.03;;;16.00;50.00;17.10;101062.00;;;;5069892;28;20682;-51
2022/04/11 03:46:43;;;;;;;3.77;2.20;;;16.00;49.90;17.10;101055.00;;;;5068859;28;20686;-50
2022/04/11 03:49:08;;;;;;;3.17;2.00;;;16.00;49.80;17.10;101075.00;;;;5069861;28;20173;-50
2022/04/11 03:51:34;;;;;;;2.90;2.07;;;16.00;49.60;17.10;101056.00;;;;5070174;28;20194;-50
2022/04/11 03:54:00;;;;;;;3.57;2.20;;;16.00;49.40;17.10;101052.00;;;;5071316;28;20635;-50
2022/04/11 03:56:26;;;;;;;3.23;2.07;;;15.90;49.20;17.00;101054.00;;;;5070012;28;20629;-50
2022/04/11 03:58:51;;;;;;;2.30;2.10;;;15.90;49.10;17.00;101048.00;;;;5069412;28;20178;-52
2022/04/11 04:01:17;;;;;;;2.50;2.10;;;15.90;49.00;17.00;101062.00;;;;5069036;28;20220;-50
2022/04/11 04:03:43;;;;;;;3.93;2.03;;;15.90;48.90;17.00;101058.00;;;;5067689;28;20209;-50
2022/04/11 04:06:09;;;;;;;2.60;2.17;;;15.90;48.80;16.90;101054.00;;;;5068724;28;20208;-50
2022/04/11 04:08:35;;;;;;;2.87;1.90;;;15.90;48.70;16.90;101058.00;;;;5067699;28;20632;-50
2022/04/11 04:11:01;;;;;;;2.20;1.93;;;15.90;48.60;16.90;101052.00;;;;5068644;28;20193;-49
2022/04/11 04:13:27;;;;;;;3.40;2.00;;;15.80;48.40;16.90;101049.00;;;;5068737;28;20661;-51
2022/04/11 04:15:53;;;;;;;2.03;1.90;;;15.80;48.50;16.90;101042.00;;;;5068181;28;20243;-50
2022/04/11 04:18:18;;;;;;;3.17;2.10;;;15.80;48.50;16.90;101042.00;;;;5068364;28;20181;-49
2022/04/11 04:20:44;;;;;;;2.43;2.00;;;15.80;48.50;16.90;101050.00;;;;5067731;28;20204;-51
2022/04/11 04:23:10;;;;;;;3.20;2.07;;;15.80;48.40;16.90;101045.00;;;;5068434;28;20178;-50
2022/04/11 04:25:36;;;;;;;2.50;1.70;;;15.80;48.50;16.80;101056.00;;;;5068043;28;20176;-50
2022/04/11 04:28:02;;;;;;;2.37;1.90;;;15.80;48.30;16.80;101052.00;;;;5068799;28;20223;-49
2022/04/11 04:30:30;;;;;;;2.30;2.00;;;15.80;48.50;16.80;101049.00;;;;5068895;28;20273;-49
2022/04/11 04:32:57;;;;;;;2.03;1.77;;;15.80;48.40;16.80;101051.00;;;;5068446;28;20861;-49
2022/04/11 04:35:23;;;;;;;3.00;2.10;;;15.80;48.30;16.80;101043.00;;;;5068206;28;20584;-50
2022/04/11 04:37:48;;;;;;;3.00;1.93;;;15.70;48.30;16.80;101041.00;;;;5068292;28;20174;-49
2022/04/11 04:40:14;;;;;;;6.73;2.20;;;15.70;48.20;16.80;101050.00;;;;5068489;28;20196;-49
2022/04/11 04:42:40;;;;;;;7.03;2.60;;;15.70;48.20;16.80;101049.00;;;;5068306;28;20544;-53
2022/04/11 04:45:06;;;;;;;7.33;2.33;;;15.70;48.20;16.80;101052.00;;;;5068093;28;20177;-50
2022/04/11 04:47:32;;;;;;;6.53;2.00;;;15.70;48.20;16.80;101048.00;;;;5068102;28;20880;-50
2022/04/11 04:49:57;;;;;;;4.07;2.20;;;15.70;48.20;16.80;101048.00;;;;5066945;28;20189;-48
2022/04/11 04:52:23;;;;;;;4.53;2.43;;;15.70;48.30;16.80;101054.00;;;;5068367;28;20209;-51
2022/04/11 04:54:49;;;;;;;6.40;2.30;;;15.70;48.20;16.80;101053.00;;;;5072205;28;20173;-51
2022/04/11 04:57:15;;;;;;;6.97;2.20;;;15.70;48.30;16.80;101053.00;;;;5067672;28;20182;-50
2022/04/11 04:59:40;;;;;;;6.33;2.20;;;15.70;48.40;16.80;101053.00;;;;5068477;28;20688;-49
2022/04/11 05:02:06;;;;;;;7.50;2.20;;;15.70;48.50;16.80;101048.00;;;;5067860;28;20275;-49
2022/04/11 05:04:32;;;;;;;5.10;2.10;;;15.70;48.50;16.70;101050.00;;;;5066344;28;20604;-50
2022/04/11 05:06:57;;;;;;;3.80;1.80;;;15.70;48.60;16.70;101047.00;;;;5067566;28;20190;-51
2022/04/11 05:09:24;;;;;;;5.50;2.00;;;15.60;48.60;16.70;101042.00;;;;5067933;28;20216;-51
2022/04/11 05:11:50;;;;;;;3.97;2.00;;;15.60;48.60;16.70;101052.00;;;;5067625;28;20697;-50
2022/04/11 05:14:16;;;;;;;5.27;2.23;;;15.60;48.70;16.70;101051.00;;;;5066259;28;20170;-51
2022/04/11 05:16:41;;;;;;;4.77;2.10;;;15.60;48.60;16.70;101055.00;;;;5066193;28;20633;-51
2022/04/11 05:19:07;;;;;;;3.70;2.20;;;15.60;48.70;16.70;101050.00;;;;5067447;28;20188;-50
2022/04/11 05:21:33;;;;;;;4.30;2.27;;;15.60;48.70;16.70;101052.00;;;;5067909;28;20570;-50
2022/04/11 05:23:58;;;;;;;4.40;2.20;;;15.60;48.60;16.70;101053.00;;;;5065593;28;20170;-50
2022/04/11 05:26:24;;;;;;;3.97;2.20;;;15.50;48.70;16.70;101048.00;;;;5066404;28;20197;-51
2022/04/11 05:28:50;;;;;;;3.73;2.03;;;15.60;48.70;16.70;101051.00;;;;5066753;28;20877;-50
2022/04/11 05:31:16;;;;;;;3.00;1.97;;;15.50;48.60;16.60;101053.00;;;;5067270;28;20746;-51
2022/04/11 05:33:42;;;;;;;4.07;2.30;;;15.50;48.70;16.60;101053.00;;;;5067539;28;20581;-50
2022/04/11 05:36:08;;;;;;;2.97;2.10;;;15.50;48.60;16.60;101050.00;;;;5066868;28;20174;-51
2022/04/11 05:38:33;;;;;;;3.53;2.10;;;15.50;48.70;16.60;101053.00;;;;5067419;28;20180;-51
2022/04/11 05:40:59;;;;;;;2.63;2.03;;;15.50;48.70;16.60;101059.00;;;;5067751;28;20203;-51
2022/04/11 05:43:25;;;;;;;2.97;2.00;;;15.50;48.70;16.60;101053.00;;;;5067563;28;20174;-50
2022/04/11 05:45:51;;;;;;;2.07;1.83;;;15.50;48.70;16.60;101052.00;;;;5067764;28;20197;-51
2022/04/11 05:48:16;;;;;;;3.57;2.23;;;15.40;48.60;16.60;101049.00;;;;5067507;28;20166;-49
2022/04/11 05:50:42;;;;;;;2.73;1.80;;;15.50;48.70;16.50;101054.00;;;;5067492;28;20200;-50
2022/04/11 05:53:08;;;;;;;2.73;1.97;;;15.40;48.60;16.50;101057.00;;;;5066449;28;20557;-50
2022/04/11 05:55:33;;;;;;;3.80;2.10;;;15.40;48.60;16.50;101045.00;;;;5067516;28;20174;-50
2022/04/11 05:57:59;;;;;;;2.93;2.00;;;15.40;48.70;16.50;101038.00;;;;5067369;28;20170;-50
2022/04/11 06:00:25;;;;;;;3.37;2.17;;;15.40;48.60;16.50;101044.00;;;;5068535;28;20201;-51
2022/04/11 06:02:51;;;;;;;2.23;1.97;;;15.40;48.60;16.50;101040.00;;;;5067925;28;20212;-49
2022/04/11 06:05:16;;;;;;;3.50;2.10;;;15.40;48.70;16.50;101038.00;;;;5067652;28;20173;-51
2022/04/11 06:07:42;;;;;;;2.70;2.20;;;15.30;48.50;16.50;101045.00;;;;5067406;28;20201;-50
2022/04/11 06:10:09;;;;;;;2.30;2.10;;;15.40;48.60;16.50;101037.00;;;;5067319;28;20196;-50
2022/04/11 06:12:35;;;;;;;2.33;1.80;;;15.30;49.20;16.50;101041.00;;;;5067564;28;20166;-49
2022/04/11 06:15:01;;;;;;;2.20;2.00;;;15.40;48.70;16.50;101040.00;;;;5066841;28;20531;-50
2022/04/11 06:17:26;;;;;;;2.10;1.90;;;15.40;48.60;16.50;101039.00;;;;5065824;28;20184;-49
2022/04/11 06:19:57;;;;;;;1.90;1.80;;;15.30;48.50;16.50;101042.00;;;;5066822;28;20197;-50
2022/04/11 06:22:23;;;;;;;2.23;1.87;;;15.30;48.60;16.40;101036.00;;;;5066996;28;20174;-50
2022/04/11 06:24:49;;;;;;;2.90;2.10;;;15.30;48.60;16.40;101045.00;;;;5072372;28;20205;-50
2022/04/11 06:27:15;;;;;;;2.63;2.00;;;15.30;48.60;16.40;101037.00;;;;4942967;28;20205;-50
2022/04/11 06:29:41;;;;;;;2.10;1.90;;;15.30;48.60;16.40;101001.00;;;;5066364;28;20185;-51
2022/04/11 06:32:07;;;;;;;1.90;1.80;;;15.30;48.50;16.40;101054.00;;;;5066343;28;20166;-50
2022/04/11 06:34:33;;;;;;;2.20;2.00;;;15.20;48.50;16.40;101052.00;;;;5066251;28;20256;-49
2022/04/11 06:36:59;;;;;;;2.50;1.83;;;15.30;48.60;16.40;101051.00;;;;5062984;28;20181;-50
2022/04/11 06:39:25;;;;;;;2.87;1.80;;;15.30;48.90;16.40;101043.00;;;;5059208;28;20190;-50
2022/04/11 06:41:51;;;;;;;2.83;1.80;;;15.30;48.80;16.30;101030.00;;;;5047410;28;20198;-50
2022/04/11 06:44:16;;;;;;;4.13;2.10;;;15.20;49.70;16.30;100969.00;;;;5068466;28;20201;-50
2022/04/11 06:46:42;;;;;;;2.33;2.13;;;15.20;49.50;16.30;101036.00;;;;5068611;28;20247;-50
2022/04/11 06:49:08;;;;;;;3.23;2.00;;;15.40;49.80;16.30;101044.00;;;;5069986;28;20693;-50
2022/04/11 06:51:33;;;;;;;3.33;1.93;;;15.50;49.70;16.40;101034.00;;;;5070191;28;20193;-50
2022/04/11 06:53:59;;;;;;;2.03;1.80;;;15.80;49.60;16.50;101032.00;;;;5069966;28;20165;-51
2022/04/11 06:56:25;;;;;;;2.63;1.80;;;16.10;49.20;16.60;101041.00;;;;5069696;28;20553;-50
2022/04/11 06:58:51;;;;;;;3.30;2.00;;;16.40;48.90;16.80;101044.00;;;;5070333;28;20178;-50
2022/04/11 07:01:16;;;;;;;2.90;1.83;;;16.80;48.40;17.00;101038.00;;;;5069953;28;20259;-50
2022/04/11 07:03:42;;;;;;;3.80;1.83;;;17.10;47.80;17.20;101044.00;;;;5070539;28;20177;-50
2022/04/11 07:06:08;;;;;;;1.90;1.70;;;17.30;47.60;17.30;101036.00;;;;5069701;28;20208;-50
2022/04/11 07:08:34;;;;;;;2.50;1.90;;;17.50;47.60;17.50;101038.00;;;;5070276;28;20189;-50
2022/04/11 07:11:00;;;;;;;2.33;2.07;;;17.60;47.50;17.60;101043.00;;;;5070208;28;20398;-50
2022/04/11 07:13:26;;;;;;;3.27;2.00;;;17.70;47.50;17.70;101047.00;;;;5070821;28;20177;-51
2022/04/11 07:15:51;;;;;;;2.10;1.90;;;17.80;47.70;17.80;101034.00;;;;5069498;28;20543;-51
2022/04/11 07:18:19;;;;;;;2.80;1.90;;;17.90;48.10;17.90;101030.00;;;;5068720;28;20181;-51
2022/04/11 07:20:48;;;;;;;3.40;1.80;;;18.00;48.50;18.10;101039.00;;;;5068707;28;20247;-50
2022/04/11 07:23:13;;;;;;;2.93;2.00;;;18.00;48.60;18.10;101032.00;;;;5071128;28;20189;-50
2022/04/11 07:25:39;;;;;;;3.93;2.00;;;18.00;48.60;18.20;101036.00;;;;5081097;28;20174;-51
2022/04/11 07:28:07;;;;;;;4.33;1.87;;;18.00;48.90;18.20;101036.00;;;;5024774;28;20261;-51
2022/04/11 07:30:33;;;;;;;3.10;2.00;;;18.00;49.00;18.30;101033.00;;;;5107476;28;20199;-52
2022/04/11 07:32:59;;;;;;;2.33;1.93;;;18.00;48.90;18.30;101042.00;;;;5103309;28;20533;-50
2022/04/11 07:35:25;;;;;;;3.97;1.80;;;18.00;48.90;18.30;101013.00;;;;5099091;28;20278;-50
2022/04/11 07:37:51;;;;;;;3.13;1.87;;;18.00;49.10;18.40;101024.00;;;;5092542;28;20205;-49
2022/04/11 07:40:16;;;;;;;4.70;1.70;;;18.00;49.20;18.40;101028.00;;;;5089584;28;20205;-49
2022/04/11 07:42:42;;;;;;;5.03;1.90;;;18.00;49.40;18.40;101028.00;;;;5089703;28;20256;-50
2022/04/11 07:45:08;;;;;;;3.10;1.93;;;17.90;49.20;18.40;101023.00;;;;5089775;28;20296;-50
2022/04/11 07:47:34;;;;;;;2.53;1.50;;;17.90;50.00;18.40;101030.00;;;;5089397;28;20201;-50
2022/04/11 07:50:00;;;;;;;20.30;3.00;;;18.00;49.80;18.40;101039.00;;;;5089658;28;20231;-49
2022/04/11 07:52:26;;;;;;;16.53;2.67;;;17.90;50.40;18.40;101043.00;;;;5089930;28;20182;-50
2022/04/11 07:54:52;;;;;;;14.27;2.50;;;17.90;51.00;18.40;101031.00;;;;5088820;28;20186;-49
2022/04/11 07:57:18;;;;;;;18.93;2.70;;;17.90;51.40;18.50;101036.00;;;;5088354;28;20180;-52
2022/04/11 07:59:44;;;;;;;12.17;2.70;;;17.90;51.40;18.40;101035.00;;;;5089316;28;20220;-50
2022/04/11 08:02:09;;;;;;;9.30;2.30;;;17.90;51.50;18.50;101024.00;;;;5089369;28;20256;-50
2022/04/11 08:04:35;;;;;;;9.20;2.50;;;17.80;51.40;18.40;101021.00;;;;5089306;28;20173;-50
2022/04/11 08:07:02;;;;;;;14.17;2.63;;;17.90;51.40;18.40;101018.00;;;;5089298;28;20343;-50
2022/04/11 08:09:28;;;;;;;6.83;2.13;;;17.90;51.40;18.40;101010.00;;;;5089038;28;20161;-49
2022/04/11 08:11:54;;;;;;;8.57;2.40;;;17.80;51.50;18.40;101019.00;;;;5089016;28;20198;-50
2022/04/11 08:14:20;;;;;;;9.87;2.40;;;17.80;51.50;18.40;101016.00;;;;5089151;28;20231;-49
2022/04/11 08:16:46;;;;;;;8.57;2.50;;;17.80;51.40;18.40;101013.00;;;;5088785;28;20171;-50
2022/04/11 08:19:12;;;;;;;7.50;2.73;;;17.70;51.30;18.40;100960.00;;;;5089250;28;20168;-51
2022/04/11 08:21:37;;;;;;;5.90;2.40;;;17.70;51.30;18.40;101013.00;;;;5084674;28;20698;-50
2022/04/11 08:24:04;;;;;;;9.70;2.50;;;17.70;51.30;18.40;101007.00;;;;5068846;28;20165;-49
2022/04/11 08:26:29;;;;;;;11.00;2.77;;;17.70;51.40;18.40;101009.00;;;;5000106;28;20208;-52
2022/04/11 08:28:55;;;;;;;14.63;3.13;;;17.70;51.60;18.40;101011.00;;;;5068754;28;20160;-49
2022/04/11 08:31:21;;;;;;;8.63;2.70;;;17.70;51.40;18.40;100993.00;;;;5067007;28;20668;-50
2022/04/11 08:33:47;;;;;;;11.60;2.50;;;17.70;51.50;18.40;100999.00;;;;5068580;28;20219;-50
2022/04/11 08:36:13;;;;;;;9.87;2.73;;;17.60;51.50;18.40;100999.00;;;;5068083;28;20168;-51
2022/04/11 08:38:38;;;;;;;8.90;2.30;;;17.60;51.40;18.40;100999.00;;;;5068298;28;20320;-51
2022/04/11 08:41:04;;;;;;;6.90;2.37;;;17.60;51.40;18.30;101000.00;;;;5069019;28;20260;-49
2022/04/11 08:43:30;;;;;;;6.27;2.20;;;17.60;51.50;18.30;100995.00;;;;5067218;28;20218;-50
2022/04/11 08:45:58;;;;;;;8.90;2.20;;;17.60;51.50;18.30;100985.00;;;;5067339;28;20469;-50
2022/04/11 08:48:23;;;;;;;6.17;2.30;;;17.60;51.50;18.30;100989.00;;;;5050980;28;20329;-49
2022/04/11 08:50:49;;;;;;;6.37;2.23;;;17.60;51.50;18.30;100987.00;;;;5050080;28;20584;-50
2022/04/11 08:53:19;;;;;;;6.43;2.13;;;17.60;51.40;18.30;100989.00;;;;5068627;28;20177;-50
2022/04/11 08:55:45;;;;;;;5.10;2.10;;;17.50;51.40;18.30;100989.00;;;;5051826;28;20179;-51
2022/04/11 08:58:11;;;;;;;8.13;2.40;;;17.50;51.40;18.30;101003.00;;;;5034310;28;20162;-50
2022/04/11 09:00:37;;;;;;;5.70;2.37;;;17.50;51.40;18.30;101001.00;;;;5068522;28;20205;-48
2022/04/11 09:03:03;;;;;;;3.77;2.13;;;17.50;51.40;18.30;101007.00;;;;5068988;28;20205;-50
2022/04/11 09:05:29;;;;;;;3.37;2.10;;;17.50;51.40;18.30;101002.00;;;;5068566;28;20174;-50
2022/04/11 09:07:59;;;;;;;3.33;1.93;;;17.50;51.50;18.30;100999.00;;;;5068258;28;20240;-49
2022/04/11 09:10:27;;;;;;;5.13;2.07;;;17.50;51.50;18.30;100993.00;;;;5068005;28;20351;-52
2022/04/11 09:13:00;;;;;;;2.70;1.97;;;17.50;51.50;18.20;100976.00;;;;5068030;28;20171;-50
2022/04/11 09:15:26;;;;;;;5.80;1.93;;;17.50;51.50;18.30;100978.00;;;;5068507;28;20515;-49
2022/04/11 09:17:54;;;;;;;4.73;2.10;;;17.40;51.50;18.20;100978.00;;;;5067376;28;20171;-51
2022/04/11 09:20:27;;;;;;;3.07;1.90;;;17.40;51.50;18.20;100969.00;;;;5066350;28;20200;-49
2022/04/11 09:22:52;;;;;;;5.80;2.27;;;17.40;51.60;18.20;100972.00;;;;5067809;28;20178;-50
2022/04/11 09:25:23;;;;;;;3.23;2.00;;;17.40;51.60;18.20;100977.00;;;;5068040;28;20166;-50
2022/04/11 09:28:07;;;;;;;4.93;1.90;;;17.40;51.60;18.20;100968.00;;;;5067591;28;20190;-50
2022/04/11 09:30:33;;;;;;;3.17;1.90;;;17.40;51.60;18.20;100969.00;;;;5067883;28;20193;-50
2022/04/11 09:33:11;;;;;;;3.07;1.97;;;17.40;51.60;18.20;100971.00;;;;5067994;28;20170;-50
2022/04/11 09:35:39;;;;;;;3.40;2.00;;;17.40;51.60;18.20;100976.00;;;;5067440;28;20224;-50
2022/04/11 09:38:21;;;;;;;3.63;1.90;;;17.40;51.60;18.20;100970.00;;;;5067487;28;20581;-50
2022/04/11 09:40:52;;;;;;;3.33;2.17;;;17.40;51.60;18.20;100964.00;;;;5067583;28;20188;-50
2022/04/11 09:43:29;;;;;;;2.70;1.83;;;17.40;51.60;18.20;100952.00;;;;5066304;28;20544;-50
2022/04/11 09:45:55;;;;;;;2.63;1.93;;;17.40;51.60;18.20;100955.00;;;;5067569;28;20190;-50
2022/04/11 09:48:29;;;;;;;3.50;1.90;;;17.40;51.60;18.20;100944.00;;;;5067618;28;20174;-51
2022/04/11 09:50:56;;;;;;;3.20;1.90;;;17.40;51.60;18.20;100954.00;;;;5069674;28;20670;-49
2022/04/11 09:53:24;;;;;;;3.43;2.00;;;17.40;51.60;18.20;100949.00;;;;5068361;28;20162;-48
2022/04/11 09:55:51;;;;;;;2.57;1.97;;;17.40;51.60;18.20;100958.00;;;;5067648;28;20540;-49
2022/04/11 09:58:18;;;;;;;2.70;1.90;;;17.40;51.60;18.20;100949.00;;;;5067830;28;20584;-50
2022/04/11 10:00:44;;;;;;;2.40;1.67;;;17.40;51.70;18.20;100944.00;;;;5071419;28;20209;-50
2022/04/11 10:03:10;;;;;;;2.53;1.90;;;17.40;51.70;18.20;100946.00;;;;5077880;28;20219;-51
2022/04/11 10:05:38;;;;;;;2.93;1.90;;;17.40;51.60;18.20;100932.00;;;;5082735;28;20197;-51
2022/04/11 10:08:08;;;;;;;2.03;1.77;;;17.40;51.70;18.20;100945.00;;;;5077905;28;20593;-49
2022/04/11 10:10:35;;;;;;;2.53;1.83;;;17.40;51.70;18.20;100953.00;;;;5067225;28;20662;-49
2022/04/11 10:13:02;;;;;;;2.27;1.80;;;17.40;51.70;18.20;100933.00;;;;5067675;28;20162;-49
2022/04/11 10:15:27;;;;;;;1.90;1.70;;;17.40;51.70;18.20;100933.00;;;;5066721;28;20611;-48
2022/04/11 10:17:54;;;;;;;1.90;1.73;;;17.40;51.70;18.20;100936.00;;;;5068683;28;20230;-50
2022/04/11 10:20:28;;;;;;;2.60;1.70;;;17.40;51.60;18.20;100939.00;;;;5070530;28;20201;-49
2022/04/11 10:23:14;;;;;;;1.97;1.83;;;17.40;51.60;18.20;100916.00;;;;5071455;28;20250;-50
2022/04/11 10:25:51;;;;;;;1.87;1.77;;;17.40;51.60;18.20;100913.00;;;;5070527;28;20248;-49
2022/04/11 10:28:25;;;;;;;2.93;1.90;;;17.40;51.60;18.20;100909.00;;;;5052935;28;20175;-49
2022/04/11 10:31:17;;;;;;;1.90;1.70;;;17.40;51.60;18.20;100915.00;;;;5070719;28;20186;-49
2022/04/11 10:33:47;;;;;;;2.53;1.97;;;17.40;52.30;18.20;100903.00;;;;5069360;28;20275;-49
2022/04/11 10:36:36;;;;;;;2.00;1.80;;;17.50;51.80;18.20;100900.00;;;;5070959;28;20170;-49
2022/04/11 10:39:17;;;;;;;2.33;1.70;;;17.50;51.90;18.20;100888.00;;;;5071178;28;20195;-49
2022/04/11 10:41:54;;;;;;;1.80;1.70;;;17.40;51.70;18.20;100893.00;;;;5071084;28;20487;-48
2022/04/11 10:44:50;;;;;;;1.83;1.60;;;17.50;51.80;18.20;100884.00;;;;5071254;28;20239;-49
2022/04/11 10:47:15;;;;;;;2.47;1.90;;;17.50;51.90;18.20;100883.00;;;;5070516;28;20655;-49